Time;durP1;ratioP1;P1;durP2;ratioP2;P2;SDS_P1;SDS_P2;PMS_P1;PMS_P2;Temp;Humidity;BMP_temperature;BMP_pressure;BME280_temperature;BME280_humidity;BME280_pressure;Samples;Min_cycle;Max_cycle;Signal;HPM_P1;HPM_P2
2022/04/18 00:00:56;;;;;;;1.40;1.30;;;12.60;1.00;;;;;;5062224;28;20470;-78
2022/04/18 00:03:24;;;;;;;2.80;1.37;;;12.60;1.00;;;;;;5057871;28;20465;-78
2022/04/18 00:05:52;;;;;;;1.77;1.40;;;12.50;1.00;;;;;;5065014;28;20486;-78
2022/04/18 00:08:21;;;;;;;2.30;1.77;;;12.40;1.00;;;;;;5061758;28;20995;-80
2022/04/18 00:10:50;;;;;;;2.67;1.80;;;12.50;1.00;;;;;;5064432;28;20478;-79
2022/04/18 00:13:18;;;;;;;1.67;1.27;;;12.40;1.00;;;;;;5062823;28;20447;-79
2022/04/18 00:15:47;;;;;;;2.10;1.53;;;12.30;1.00;;;;;;5063135;28;20474;-79
2022/04/18 00:18:15;;;;;;;2.00;1.57;;;12.40;1.00;;;;;;5053552;28;21210;-79
2022/04/18 00:20:43;;;;;;;1.63;1.40;;;12.40;1.00;;;;;;5065176;28;20451;-78
2022/04/18 00:23:11;;;;;;;2.73;1.60;;;12.30;1.00;;;;;;5059249;28;21053;-80
2022/04/18 00:25:39;;;;;;;2.50;1.43;;;12.30;1.00;;;;;;5064177;28;20479;-79
2022/04/18 00:28:09;;;;;;;1.47;1.20;;;12.30;1.00;;;;;;5062710;28;21338;-80
2022/04/18 00:30:37;;;;;;;1.80;1.50;;;12.20;1.00;;;;;;5062247;28;20903;-78
2022/04/18 00:33:08;;;;;;;1.37;1.27;;;12.30;1.00;;;;;;5061568;28;20542;-78
2022/04/18 00:35:36;;;;;;;1.90;1.70;;;12.00;1.00;;;;;;5058013;28;20483;-79
2022/04/18 00:38:04;;;;;;;4.33;1.87;;;11.90;1.00;;;;;;5062056;28;20442;-79
2022/04/18 00:40:33;;;;;;;1.67;1.57;;;11.90;1.00;;;;;;5066085;28;20508;-79
2022/04/18 00:43:05;;;;;;;1.37;1.27;;;11.90;1.00;;;;;;5062589;28;20988;-79
2022/04/18 00:45:35;;;;;;;1.90;1.60;;;11.80;1.00;;;;;;5061272;28;20555;-77
2022/04/18 00:48:04;;;;;;;1.73;1.63;;;11.80;1.00;;;;;;5058410;28;20561;-78
2022/04/18 00:50:33;;;;;;;1.90;1.80;;;11.70;1.00;;;;;;5062671;28;21202;-78
2022/04/18 00:53:04;;;;;;;2.67;1.53;;;11.70;1.00;;;;;;5060649;28;20481;-78
2022/04/18 00:55:34;;;;;;;1.93;1.73;;;11.60;1.00;;;;;;5056723;28;20522;-77
2022/04/18 00:58:03;;;;;;;1.70;1.60;;;11.60;1.00;;;;;;5062527;28;20463;-78
2022/04/18 01:00:31;;;;;;;2.10;1.57;;;11.60;1.00;;;;;;5062100;28;20467;-79
2022/04/18 01:03:01;;;;;;;1.40;1.30;;;11.50;1.00;;;;;;5059114;28;21025;-78
2022/04/18 01:05:29;;;;;;;1.60;1.50;;;11.60;1.00;;;;;;5061205;28;20521;-79
2022/04/18 01:07:58;;;;;;;3.73;1.50;;;11.50;1.00;;;;;;5061135;28;20466;-79
2022/04/18 01:10:26;;;;;;;2.63;1.33;;;11.50;1.00;;;;;;5060819;28;20467;-80
2022/04/18 01:12:54;;;;;;;2.37;1.70;;;11.50;1.00;;;;;;5063235;28;20462;-79
2022/04/18 01:15:23;;;;;;;1.80;1.50;;;11.50;1.00;;;;;;5059745;28;20459;-79
2022/04/18 01:17:51;;;;;;;3.33;1.40;;;11.40;1.00;;;;;;5063017;28;20466;-79
2022/04/18 01:20:20;;;;;;;2.00;1.80;;;11.20;1.00;;;;;;5058761;28;21031;-79
2022/04/18 01:22:52;;;;;;;2.23;1.50;;;11.20;1.00;;;;;;5060348;28;20481;-81
2022/04/18 01:30:59;;;;;;;1.60;1.43;;;11.00;1.00;;;;;;5043283;28;20466;-78
2022/04/18 01:33:28;;;;;;;1.50;1.40;;;11.30;1.00;;;;;;5049731;28;20513;-79
2022/04/18 01:35:56;;;;;;;3.03;1.70;;;11.00;1.00;;;;;;5054628;28;20474;-78
2022/04/18 01:38:26;;;;;;;1.87;1.70;;;11.10;1.00;;;;;;5056195;28;20455;-78
2022/04/18 01:40:54;;;;;;;1.63;1.40;;;11.00;1.00;;;;;;5061348;28;20451;-78
2022/04/18 01:43:22;;;;;;;1.63;1.50;;;11.00;1.00;;;;;;5055261;28;20454;-79
2022/04/18 01:45:50;;;;;;;1.70;1.60;;;11.30;1.00;;;;;;5061103;28;20512;-79
2022/04/18 01:48:18;;;;;;;2.17;1.60;;;11.00;1.00;;;;;;5060648;28;20547;-79
2022/04/18 01:50:47;;;;;;;1.60;1.40;;;10.90;1.00;;;;;;5060305;28;20463;-79
2022/04/18 01:53:15;;;;;;;2.23;1.50;;;10.80;1.00;;;;;;5058655;28;20467;-78
2022/04/18 01:55:44;;;;;;;2.10;1.87;;;10.90;1.00;;;;;;5059162;28;20482;-76
2022/04/18 01:58:13;;;;;;;1.77;1.67;;;10.80;1.00;;;;;;5059703;28;20447;-79
2022/04/18 02:00:41;;;;;;;1.70;1.60;;;10.80;1.00;;;;;;5057157;28;20458;-77
2022/04/18 02:03:09;;;;;;;3.40;1.70;;;10.70;1.00;;;;;;5055226;28;20954;-80
2022/04/18 02:05:37;;;;;;;2.00;1.60;;;10.80;1.00;;;;;;5059191;28;20475;-78
2022/04/18 02:08:06;;;;;;;1.70;1.60;;;10.80;1.00;;;;;;5056627;28;20447;-78
2022/04/18 02:10:34;;;;;;;4.23;2.30;;;10.80;1.00;;;;;;5058430;28;20961;-78
2022/04/18 02:13:04;;;;;;;2.43;2.23;;;10.70;1.00;;;;;;5060579;28;20465;-79
2022/04/18 02:15:33;;;;;;;2.57;1.67;;;10.70;1.00;;;;;;5058311;28;20478;-79
2022/04/18 02:18:01;;;;;;;1.90;1.50;;;10.70;1.00;;;;;;5062440;28;20540;-79
2022/04/18 02:20:29;;;;;;;2.87;1.83;;;10.60;1.00;;;;;;5056423;28;20474;-79
2022/04/18 02:22:57;;;;;;;2.17;1.70;;;10.60;1.00;;;;;;5063640;28;20451;-79
2022/04/18 02:25:26;;;;;;;2.80;1.67;;;10.90;1.00;;;;;;5057099;28;20486;-79
2022/04/18 02:27:54;;;;;;;1.80;1.57;;;10.60;1.00;;;;;;5060134;28;20466;-79
2022/04/18 02:30:24;;;;;;;2.60;2.10;;;10.60;1.00;;;;;;5061222;28;20519;-79
2022/04/18 02:32:52;;;;;;;2.70;1.73;;;10.60;1.00;;;;;;5062505;28;20451;-79
2022/04/18 02:35:21;;;;;;;1.83;1.67;;;10.60;1.00;;;;;;5058596;28;20481;-77
2022/04/18 02:37:51;;;;;;;2.47;1.80;;;10.50;1.00;;;;;;5060531;28;20515;-79
2022/04/18 02:40:20;;;;;;;3.07;1.97;;;10.50;1.00;;;;;;5057919;28;20442;-78
2022/04/18 02:42:48;;;;;;;2.27;2.00;;;10.50;1.00;;;;;;5064461;28;20473;-78
2022/04/18 02:45:18;;;;;;;1.70;1.60;;;10.40;1.00;;;;;;5056183;28;20486;-78
2022/04/18 02:47:49;;;;;;;2.23;2.03;;;10.30;1.00;;;;;;5061881;28;20528;-79
2022/04/18 02:50:17;;;;;;;2.60;2.40;;;10.30;1.00;;;;;;5059355;28;20462;-79
2022/04/18 02:52:45;;;;;;;2.90;1.70;;;10.40;1.00;;;;;;5061356;28;20569;-79
2022/04/18 02:55:13;;;;;;;2.57;1.70;;;10.40;1.00;;;;;;5057587;28;20832;-79
2022/04/18 02:57:41;;;;;;;1.80;1.70;;;10.40;1.00;;;;;;5061320;28;20465;-78
2022/04/18 03:00:10;;;;;;;2.80;1.70;;;10.40;1.00;;;;;;5055896;28;20457;-78
2022/04/18 03:02:40;;;;;;;2.03;1.80;;;10.30;1.00;;;;;;5057591;28;20481;-78
2022/04/18 03:05:12;;;;;;;2.33;1.97;;;10.30;1.00;;;;;;5059302;28;20988;-79
2022/04/18 03:07:40;;;;;;;2.57;1.80;;;10.30;1.00;;;;;;5058149;28;20966;-78
2022/04/18 03:10:09;;;;;;;1.80;1.57;;;10.30;1.00;;;;;;5064523;28;20453;-78
2022/04/18 03:12:37;;;;;;;1.80;1.70;;;10.30;1.00;;;;;;5059257;28;20549;-79
2022/04/18 03:15:08;;;;;;;1.53;1.43;;;10.20;1.00;;;;;;5059550;28;20458;-78
2022/04/18 03:17:36;;;;;;;2.60;1.47;;;10.10;1.00;;;;;;5054852;28;20454;-79
2022/04/18 03:20:05;;;;;;;3.00;1.63;;;10.10;1.00;;;;;;5062086;28;20463;-78
2022/04/18 03:22:35;;;;;;;1.70;1.60;;;10.10;1.00;;;;;;5058902;28;20462;-78
2022/04/18 03:25:03;;;;;;;2.10;1.33;;;9.90;1.00;;;;;;5058623;28;20446;-79
2022/04/18 03:27:31;;;;;;;2.30;1.47;;;10.00;1.00;;;;;;5060852;28;20486;-78
2022/04/18 03:29:59;;;;;;;1.60;1.50;;;10.00;1.00;;;;;;5066216;28;20458;-78
2022/04/18 03:32:27;;;;;;;4.10;1.53;;;9.90;1.00;;;;;;5066369;28;20956;-78
2022/04/18 03:34:56;;;;;;;1.53;1.40;;;9.90;1.00;;;;;;5056265;28;20482;-77
2022/04/18 03:40:12;;;;;;;2.50;1.67;;;9.90;1.00;;;;;;5055146;28;20449;-78
2022/04/18 03:42:40;;;;;;;2.63;1.80;;;9.80;1.00;;;;;;5063813;28;20450;-78
2022/04/18 03:45:08;;;;;;;2.60;1.30;;;9.90;1.00;;;;;;5056860;28;20807;-78
2022/04/18 03:47:37;;;;;;;6.00;2.30;;;9.90;1.00;;;;;;5065549;28;20486;-78
2022/04/18 03:50:05;;;;;;;1.97;1.70;;;9.90;1.00;;;;;;5063179;28;20521;-78
2022/04/18 03:52:33;;;;;;;2.10;1.90;;;9.90;1.00;;;;;;5060422;28;20465;-78
2022/04/18 03:55:06;;;;;;;1.17;1.10;;;9.90;1.00;;;;;;5059361;28;20957;-78
2022/04/18 03:57:36;;;;;;;2.13;1.40;;;9.90;1.00;;;;;;5062454;28;20500;-78
2022/04/18 04:00:06;;;;;;;1.80;1.70;;;9.70;1.00;;;;;;5058983;28;20476;-76
2022/04/18 04:02:34;;;;;;;1.73;1.63;;;9.70;1.00;;;;;;5060239;28;20464;-78
2022/04/18 04:05:03;;;;;;;2.07;1.43;;;9.70;1.00;;;;;;5063141;28;20457;-78
2022/04/18 04:07:31;;;;;;;1.90;1.70;;;9.70;1.00;;;;;;5059044;28;20483;-79
2022/04/18 04:09:59;;;;;;;2.23;1.60;;;9.60;1.00;;;;;;5059998;28;20460;-79
2022/04/18 04:12:28;;;;;;;1.50;1.40;;;9.60;1.00;;;;;;5063222;28;20461;-78
2022/04/18 04:14:57;;;;;;;1.83;1.37;;;9.60;1.00;;;;;;5058213;28;20448;-78
2022/04/18 04:17:29;;;;;;;2.80;1.80;;;9.50;1.00;;;;;;5062718;28;20446;-76
2022/04/18 04:20:17;;;;;;;1.60;1.50;;;9.50;1.00;;;;;;5063062;28;20456;-79
2022/04/18 04:22:48;;;;;;;2.07;1.60;;;9.50;1.00;;;;;;5058715;28;20775;-78
2022/04/18 04:25:17;;;;;;;2.33;2.13;;;9.60;1.00;;;;;;5062736;28;20488;-78
2022/04/18 04:27:45;;;;;;;2.53;2.33;;;9.60;1.00;;;;;;5058924;28;20561;-78
2022/04/18 04:30:15;;;;;;;5.90;1.57;;;9.50;1.00;;;;;;5060558;28;20481;-80
2022/04/18 04:32:43;;;;;;;1.80;1.70;;;9.70;1.00;;;;;;5059265;28;20448;-78
2022/04/18 04:35:11;;;;;;;1.83;1.73;;;9.40;1.00;;;;;;5062327;28;20545;-79
2022/04/18 04:37:40;;;;;;;1.93;1.73;;;9.30;1.00;;;;;;5064702;28;20449;-78
2022/04/18 04:40:09;;;;;;;2.33;2.13;;;9.30;1.00;;;;;;5053905;28;20461;-78
2022/04/18 04:42:38;;;;;;;2.93;1.83;;;9.40;1.00;;;;;;5060674;28;20551;-77
2022/04/18 04:45:06;;;;;;;1.93;1.73;;;9.40;1.00;;;;;;5060004;28;20457;-77
2022/04/18 04:47:36;;;;;;;2.10;1.80;;;9.30;1.00;;;;;;5062514;28;20470;-77
2022/04/18 04:50:04;;;;;;;2.03;1.50;;;9.30;1.00;;;;;;5059635;28;20459;-78
2022/04/18 04:52:32;;;;;;;2.20;1.80;;;9.40;1.00;;;;;;5061461;28;20462;-78
2022/04/18 04:55:01;;;;;;;2.27;1.80;;;9.30;1.00;;;;;;5057525;28;20449;-77
2022/04/18 04:57:29;;;;;;;2.10;1.87;;;9.30;1.00;;;;;;5059615;28;20442;-78
2022/04/18 04:59:57;;;;;;;2.40;2.20;;;9.20;1.00;;;;;;5060083;28;20453;-77
2022/04/18 05:02:25;;;;;;;1.67;1.57;;;9.20;1.00;;;;;;5060918;28;20890;-77
2022/04/18 05:04:55;;;;;;;1.50;1.40;;;9.30;1.00;;;;;;5062456;28;20456;-78
2022/04/18 05:07:23;;;;;;;2.97;2.13;;;9.40;1.00;;;;;;5059064;28;20477;-78
2022/04/18 05:09:51;;;;;;;2.70;1.80;;;9.40;1.00;;;;;;5059308;28;20486;-77
2022/04/18 05:12:20;;;;;;;1.73;1.63;;;9.40;1.00;;;;;;5060680;28;20457;-78
2022/04/18 05:14:48;;;;;;;2.27;1.63;;;9.40;1.00;;;;;;5057320;28;20451;-78
2022/04/18 05:17:16;;;;;;;2.20;1.80;;;9.40;1.00;;;;;;5064029;28;21110;-78
2022/04/18 05:19:45;;;;;;;1.70;1.60;;;9.40;1.00;;;;;;5062151;28;20450;-76
2022/04/18 05:22:15;;;;;;;3.70;1.97;;;9.40;1.00;;;;;;5061139;28;20480;-76
2022/04/18 05:24:43;;;;;;;2.13;2.00;;;9.40;1.00;;;;;;5058785;28;20465;-77
2022/04/18 05:27:15;;;;;;;2.63;2.17;;;9.40;1.00;;;;;;5060299;28;20493;-78
2022/04/18 05:29:43;;;;;;;2.80;2.40;;;9.40;1.00;;;;;;5056285;28;20449;-78
2022/04/18 05:32:12;;;;;;;2.20;2.03;;;9.50;1.00;;;;;;5060248;28;20466;-77
2022/04/18 05:34:40;;;;;;;3.00;2.00;;;9.50;1.00;;;;;;5057514;28;20463;-76
2022/04/18 05:37:08;;;;;;;3.10;2.10;;;9.60;1.00;;;;;;5054940;28;20523;-77
2022/04/18 05:39:38;;;;;;;2.87;2.67;;;9.60;1.00;;;;;;5053789;28;21509;-77
2022/04/18 05:42:07;;;;;;;3.60;3.03;;;9.70;1.00;;;;;;5056982;28;20437;-77
2022/04/18 05:44:35;;;;;;;3.17;1.87;;;9.60;1.00;;;;;;5057158;28;20846;-77
2022/04/18 05:47:04;;;;;;;2.93;2.20;;;9.50;1.00;;;;;;5058920;28;20830;-77
2022/04/18 05:49:32;;;;;;;2.47;2.20;;;9.60;1.00;;;;;;5058454;28;20472;-78
2022/04/18 05:52:01;;;;;;;2.13;1.93;;;9.60;1.00;;;;;;5063738;28;20483;-78
2022/04/18 05:54:29;;;;;;;2.80;2.50;;;9.70;1.00;;;;;;5057559;28;20464;-78
2022/04/18 05:57:00;;;;;;;2.30;2.10;;;9.80;1.00;;;;;;5061889;28;20478;-78
2022/04/18 05:59:28;;;;;;;3.53;2.03;;;10.20;1.00;;;;;;5059497;28;20450;-81
2022/04/18 06:01:57;;;;;;;3.47;2.40;;;10.00;1.00;;;;;;5066236;28;20442;-82
2022/04/18 06:04:25;;;;;;;3.50;2.50;;;10.10;1.00;;;;;;5059704;28;21166;-82
2022/04/18 06:06:53;;;;;;;2.60;2.40;;;10.20;1.00;;;;;;5055390;28;20577;-79
2022/04/18 06:09:21;;;;;;;2.37;2.17;;;10.20;1.00;;;;;;5053791;28;20473;-79
2022/04/18 06:11:49;;;;;;;2.20;2.10;;;10.20;1.00;;;;;;5066549;28;20483;-78
2022/04/18 06:14:19;;;;;;;2.07;1.80;;;10.30;1.00;;;;;;5061582;28;20462;-78
2022/04/18 06:16:47;;;;;;;2.50;2.30;;;10.50;1.00;;;;;;5062730;28;20466;-78
2022/04/18 06:19:15;;;;;;;2.30;2.10;;;10.60;1.00;;;;;;5055467;28;20536;-78
2022/04/18 06:21:43;;;;;;;2.77;2.57;;;10.80;1.00;;;;;;5055511;28;20448;-78
2022/04/18 06:24:11;;;;;;;3.20;2.37;;;11.00;1.00;;;;;;5055824;28;20460;-78
2022/04/18 06:26:40;;;;;;;2.30;1.80;;;11.20;1.00;;;;;;5059697;28;20482;-79
2022/04/18 06:29:08;;;;;;;2.77;1.90;;;11.50;1.00;;;;;;5059546;28;20487;-80
2022/04/18 06:31:37;;;;;;;2.67;2.20;;;11.60;1.00;;;;;;5052868;28;20444;-78
2022/04/18 06:34:06;;;;;;;3.03;2.83;;;11.90;1.00;;;;;;5059883;28;20477;-77
2022/04/18 06:36:34;;;;;;;2.60;2.17;;;12.10;1.00;;;;;;5060904;28;20468;-79
2022/04/18 06:39:03;;;;;;;2.07;1.90;;;12.30;1.00;;;;;;5059360;28;20435;-79
2022/04/18 06:41:31;;;;;;;2.13;1.60;;;12.40;1.00;;;;;;5059489;28;20463;-78
2022/04/18 06:43:59;;;;;;;2.07;1.50;;;12.60;1.00;;;;;;5059279;28;20516;-78
2022/04/18 06:46:28;;;;;;;2.27;1.93;;;12.60;1.00;;;;;;5060193;28;20497;-79
2022/04/18 06:48:58;;;;;;;2.97;2.77;;;12.80;1.00;;;;;;5058250;28;20479;-79
2022/04/18 06:51:26;;;;;;;3.50;2.00;;;12.80;1.00;;;;;;5062381;28;20458;-78
2022/04/18 06:53:54;;;;;;;1.40;1.30;;;12.90;1.00;;;;;;5056239;28;20447;-79
2022/04/18 06:59:08;;;;;;;1.70;1.60;;;13.20;1.00;;;;;;5057968;28;20463;-79
2022/04/18 07:01:36;;;;;;;2.30;2.10;;;13.30;1.00;;;;;;5067150;28;20806;-79
2022/04/18 07:04:06;;;;;;;2.10;1.40;;;13.50;1.00;;;;;;5058307;28;20455;-78
2022/04/18 07:06:35;;;;;;;2.90;1.77;;;13.70;1.00;;;;;;5065003;28;21353;-80
2022/04/18 07:09:03;;;;;;;2.20;1.43;;;13.80;1.00;;;;;;5072185;28;20484;-79
2022/04/18 07:11:31;;;;;;;2.53;2.33;;;14.00;1.00;;;;;;5067903;28;20463;-79
2022/04/18 07:13:59;;;;;;;4.27;1.80;;;14.00;1.00;;;;;;5059462;28;20454;-79
2022/04/18 07:16:29;;;;;;;1.50;1.40;;;14.10;1.00;;;;;;5061276;28;20477;-79
2022/04/18 07:18:58;;;;;;;2.30;1.30;;;14.20;1.00;;;;;;5063386;28;20445;-79
2022/04/18 07:21:28;;;;;;;1.73;1.50;;;14.30;1.00;;;;;;5066513;28;20463;-79
2022/04/18 07:23:56;;;;;;;1.70;1.60;;;14.40;1.00;;;;;;5064067;28;20553;-79
2022/04/18 07:26:24;;;;;;;2.07;1.90;;;14.30;1.00;;;;;;5069246;28;20508;-79
2022/04/18 07:28:53;;;;;;;2.37;1.70;;;14.60;1.00;;;;;;5065834;28;21176;-80
2022/04/18 07:31:21;;;;;;;2.60;2.07;;;14.90;1.00;;;;;;5051993;28;20449;-79
2022/04/18 07:33:49;;;;;;;2.03;1.80;;;15.20;1.00;;;;;;5068534;28;20537;-77
2022/04/18 07:36:18;;;;;;;1.50;1.40;;;15.40;1.00;;;;;;5065135;28;20568;-79
2022/04/18 07:38:51;;;;;;;1.87;1.70;;;15.40;1.00;;;;;;5064650;28;20458;-80
2022/04/18 07:41:20;;;;;;;1.97;1.77;;;15.50;1.00;;;;;;5069482;28;20472;-79
2022/04/18 07:43:49;;;;;;;2.03;1.93;;;15.60;1.00;;;;;;5068039;28;20887;-79
2022/04/18 07:46:17;;;;;;;1.63;1.53;;;15.30;1.00;;;;;;5065883;28;20486;-79
2022/04/18 07:48:48;;;;;;;2.50;1.90;;;15.90;1.00;;;;;;5063156;28;20852;-79
2022/04/18 07:51:36;;;;;;;2.33;1.70;;;15.90;1.00;;;;;;5060344;28;20472;-78
2022/04/18 07:54:07;;;;;;;1.70;1.60;;;15.90;1.00;;;;;;5063256;28;20470;-78
2022/04/18 07:56:36;;;;;;;1.87;1.50;;;15.80;1.00;;;;;;5061580;28;21041;-78
2022/04/18 07:59:08;;;;;;;2.00;1.80;;;15.80;1.00;;;;;;5060314;28;20847;-79
2022/04/18 08:01:37;;;;;;;1.93;1.83;;;15.70;1.00;;;;;;5064708;28;20458;-79
2022/04/18 08:04:05;;;;;;;2.27;2.07;;;15.60;1.00;;;;;;5059782;28;20494;-76
2022/04/18 08:06:35;;;;;;;1.70;1.60;;;15.50;1.00;;;;;;5060731;28;20470;-77
2022/04/18 08:09:05;;;;;;;2.63;1.80;;;15.30;1.00;;;;;;5056174;28;20511;-78
2022/04/18 08:11:33;;;;;;;2.27;2.07;;;15.10;1.00;;;;;;5057953;28;20462;-76
2022/04/18 08:14:01;;;;;;;1.67;1.50;;;15.10;1.00;;;;;;5058714;28;20460;-80
2022/04/18 08:16:29;;;;;;;6.13;2.00;;;15.10;1.00;;;;;;5062079;28;20469;-79
2022/04/18 08:18:57;;;;;;;4.10;1.80;;;15.10;1.00;;;;;;5058005;28;20809;-78
2022/04/18 08:21:26;;;;;;;3.27;1.70;;;15.20;1.00;;;;;;5056570;28;20470;-78
2022/04/18 08:23:54;;;;;;;1.73;1.63;;;15.20;1.00;;;;;;5059611;28;20988;-79
2022/04/18 08:26:31;;;;;;;2.17;1.97;;;15.20;1.00;;;;;;5059469;28;20483;-78
2022/04/18 08:28:59;;;;;;;1.70;1.43;;;15.10;1.00;;;;;;5063066;28;20578;-77
2022/04/18 08:31:27;;;;;;;1.77;1.67;;;15.10;1.00;;;;;;5059234;28;20461;-77
2022/04/18 08:33:56;;;;;;;1.70;1.47;;;15.00;1.00;;;;;;5062327;28;20468;-78
2022/04/18 08:36:25;;;;;;;1.70;1.60;;;15.00;1.00;;;;;;5063175;28;21005;-81
2022/04/18 08:38:53;;;;;;;2.70;1.90;;;15.20;1.00;;;;;;5059142;28;21417;-80
2022/04/18 08:41:25;;;;;;;2.43;1.57;;;15.30;1.00;;;;;;5060673;28;20474;-79
2022/04/18 08:43:56;;;;;;;2.80;1.50;;;15.30;1.00;;;;;;5064026;28;20453;-79
2022/04/18 08:46:25;;;;;;;1.53;1.43;;;15.30;1.00;;;;;;5059325;28;20467;-80
2022/04/18 08:54:26;;;;;;;2.27;1.50;;;15.20;1.00;;;;;;5055049;28;21099;-78
2022/04/18 08:56:54;;;;;;;2.57;1.83;;;15.20;1.00;;;;;;5059629;28;22510;-79
2022/04/18 08:59:24;;;;;;;1.93;1.50;;;15.30;1.00;;;;;;5061928;28;20461;-80
2022/04/18 09:01:53;;;;;;;2.97;1.73;;;15.40;1.00;;;;;;5057171;28;20462;-78
2022/04/18 09:04:21;;;;;;;1.83;1.73;;;15.40;1.00;;;;;;5060167;28;21059;-79
2022/04/18 09:06:50;;;;;;;2.33;1.80;;;15.50;1.00;;;;;;5063529;28;20477;-79
2022/04/18 09:09:27;;;;;;;1.93;1.63;;;15.60;1.00;;;;;;5062868;28;20482;-79
2022/04/18 09:11:55;;;;;;;1.97;1.80;;;15.60;1.00;;;;;;5074295;28;20522;-80
2022/04/18 09:14:27;;;;;;;2.37;1.90;;;15.60;1.00;;;;;;5061548;28;20448;-80
2022/04/18 09:16:55;;;;;;;2.83;1.77;;;15.60;1.00;;;;;;5062510;28;20478;-80
2022/04/18 09:19:23;;;;;;;1.87;1.77;;;15.60;1.00;;;;;;5061235;28;20458;-78
2022/04/18 09:21:59;;;;;;;3.70;1.63;;;15.60;1.00;;;;;;5059832;28;20477;-79
2022/04/18 09:24:32;;;;;;;2.77;2.07;;;15.70;1.00;;;;;;5059505;28;20458;-80
2022/04/18 09:27:06;;;;;;;3.83;2.17;;;15.70;1.00;;;;;;5067788;28;20473;-80
2022/04/18 09:29:38;;;;;;;2.20;1.70;;;15.70;1.00;;;;;;5068162;28;20524;-81
2022/04/18 09:32:09;;;;;;;2.33;1.57;;;15.60;1.00;;;;;;5065934;28;20520;-80
2022/04/18 09:34:37;;;;;;;1.87;1.67;;;15.80;1.00;;;;;;5060461;28;20455;-81
2022/04/18 09:37:13;;;;;;;1.60;1.50;;;15.90;1.00;;;;;;5069829;28;20478;-83
2022/04/18 09:39:44;;;;;;;2.13;1.50;;;15.90;1.00;;;;;;5064042;28;20790;-81
2022/04/18 09:42:14;;;;;;;1.87;1.43;;;16.00;1.00;;;;;;5065363;28;20455;-84
2022/04/18 09:44:44;;;;;;;2.20;1.50;;;16.10;1.00;;;;;;5062835;28;20631;-84
2022/04/18 09:47:16;;;;;;;3.13;1.80;;;16.20;1.00;;;;;;5065577;28;20469;-83
2022/04/18 09:49:45;;;;;;;2.67;1.50;;;16.30;1.00;;;;;;5064176;28;20480;-85
2022/04/18 09:52:15;;;;;;;2.20;2.00;;;16.40;1.00;;;;;;5064983;28;20575;-80
2022/04/18 09:54:50;;;;;;;2.13;1.60;;;16.40;1.00;;;;;;5062646;28;20463;-82
2022/04/18 09:57:24;;;;;;;2.20;2.00;;;16.30;1.00;;;;;;5061475;28;20534;-81
2022/04/18 09:59:55;;;;;;;1.70;1.60;;;16.20;1.00;;;;;;5059313;28;20465;-81
2022/04/18 10:02:24;;;;;;;2.27;2.07;;;16.20;1.00;;;;;;5061456;28;20454;-80
2022/04/18 10:04:53;;;;;;;1.90;1.70;;;16.30;1.00;;;;;;5063469;28;20495;-81
2022/04/18 10:07:22;;;;;;;2.17;1.97;;;16.30;1.00;;;;;;5094328;28;20580;-81
2022/04/18 10:09:50;;;;;;;1.70;1.60;;;16.30;1.00;;;;;;5066597;28;20469;-81
2022/04/18 10:12:19;;;;;;;2.00;1.90;;;16.30;1.00;;;;;;5065444;28;20460;-81
2022/04/18 10:14:48;;;;;;;3.10;2.23;;;16.30;1.00;;;;;;5065249;28;20487;-81
2022/04/18 10:17:19;;;;;;;9.73;2.40;;;16.40;1.00;;;;;;5062996;28;20476;-81
2022/04/18 10:20:20;;;;;;;1.87;1.60;;;16.30;1.00;;;;;;5061419;28;21169;-82
2022/04/18 10:23:25;;;;;;;2.60;1.90;;;16.20;1.00;;;;;;5019588;28;20467;-79
2022/04/18 10:26:15;;;;;;;2.07;1.87;;;16.30;1.00;;;;;;4990088;28;20592;-80
2022/04/18 10:28:46;;;;;;;3.37;3.07;;;16.40;1.00;;;;;;5061754;28;20538;-79
2022/04/18 10:31:19;;;;;;;2.27;2.07;;;16.40;1.00;;;;;;5061359;28;20468;-82
2022/04/18 10:33:51;;;;;;;2.30;1.77;;;16.60;1.00;;;;;;5061985;28;20472;-81
2022/04/18 10:36:26;;;;;;;2.37;1.80;;;16.70;1.00;;;;;;5058929;28;20495;-81
2022/04/18 10:38:56;;;;;;;1.60;1.50;;;16.70;1.00;;;;;;5057731;28;21079;-82
2022/04/18 10:41:34;;;;;;;1.47;1.30;;;16.90;1.00;;;;;;5054556;28;20450;-81
2022/04/18 10:44:06;;;;;;;2.70;2.00;;;17.00;1.00;;;;;;5057259;28;20492;-81
2022/04/18 10:46:34;;;;;;;2.20;1.80;;;16.90;1.00;;;;;;5052735;28;20435;-81
2022/04/18 10:49:05;;;;;;;2.27;2.07;;;16.90;1.00;;;;;;5065357;28;20572;-80
2022/04/18 10:51:36;;;;;;;2.73;2.07;;;17.00;1.00;;;;;;5069792;28;20482;-80
2022/04/18 10:54:12;;;;;;;1.37;1.27;;;17.00;1.00;;;;;;5059231;28;20459;-78
2022/04/18 10:57:02;;;;;;;1.40;1.20;;;17.10;1.00;;;;;;5069382;28;20476;-82
2022/04/18 10:59:32;;;;;;;1.80;1.70;;;17.20;1.00;;;;;;5058609;28;21004;-80
2022/04/18 11:02:02;;;;;;;1.30;1.20;;;17.20;1.00;;;;;;5064579;28;20450;-80
2022/04/18 11:04:33;;;;;;;1.70;1.50;;;17.20;1.00;;;;;;5058860;28;20981;-81
2022/04/18 11:07:03;;;;;;;2.13;1.00;;;17.20;1.00;;;;;;5056317;28;21150;-80
2022/04/18 11:09:33;;;;;;;1.90;1.70;;;17.30;1.00;;;;;;5063197;28;20461;-80
2022/04/18 11:12:06;;;;;;;1.60;1.50;;;17.20;1.00;;;;;;5063262;28;20458;-80
2022/04/18 11:14:49;;;;;;;1.50;1.40;;;17.20;1.00;;;;;;5059341;28;20459;-82
2022/04/18 11:17:34;;;;;;;1.87;1.63;;;17.30;1.00;;;;;;5058834;28;20530;-79
2022/04/18 11:20:30;;;;;;;1.53;1.40;;;17.50;1.00;;;;;;5055736;28;20477;-78
2022/04/18 11:23:18;;;;;;;1.67;1.57;;;17.60;1.00;;;;;;5055086;28;20954;-78
2022/04/18 11:25:54;;;;;;;1.77;1.27;;;17.70;1.00;;;;;;5057761;28;20468;-78
2022/04/18 11:28:23;;;;;;;1.83;1.30;;;17.80;1.00;;;;;;5059625;28;21350;-79
2022/04/18 11:30:52;;;;;;;1.63;1.40;;;17.80;1.00;;;;;;5063912;28;20529;-78
2022/04/18 11:33:20;;;;;;;1.63;1.50;;;17.70;1.00;;;;;;5064064;28;20525;-80
2022/04/18 11:35:50;;;;;;;1.93;1.83;;;17.80;1.00;;;;;;5063849;28;20474;-79
2022/04/18 11:38:19;;;;;;;2.00;1.23;;;17.80;1.00;;;;;;5064861;28;20527;-76
2022/04/18 11:40:47;;;;;;;1.97;1.30;;;18.00;1.00;;;;;;5061280;28;20450;-79
2022/04/18 11:43:17;;;;;;;1.40;1.30;;;18.00;1.00;;;;;;5059986;28;20447;-80
2022/04/18 11:45:45;;;;;;;2.50;1.30;;;17.90;1.00;;;;;;5056252;28;20545;-80
2022/04/18 11:48:14;;;;;;;1.50;1.40;;;17.90;1.00;;;;;;5057707;28;20491;-80
2022/04/18 11:50:43;;;;;;;2.27;1.50;;;17.80;1.00;;;;;;5067933;28;20508;-80
2022/04/18 11:53:19;;;;;;;2.27;1.23;;;17.80;1.00;;;;;;5055975;28;20872;-80
2022/04/18 11:55:49;;;;;;;1.53;1.30;;;17.70;1.00;;;;;;5069533;28;20474;-84
2022/04/18 11:58:20;;;;;;;3.00;1.50;;;17.80;1.00;;;;;;5069161;28;20866;-84
2022/04/18 12:09:13;;;;;;;2.07;1.97;;;17.90;1.00;;;;;;5086327;28;20554;-83
2022/04/18 12:11:42;;;;;;;1.63;1.30;;;17.70;1.00;;;;;;5064121;28;20479;-83
2022/04/18 12:14:10;;;;;;;1.30;1.20;;;17.60;1.00;;;;;;5064605;28;20451;-81
2022/04/18 12:16:40;;;;;;;1.53;1.33;;;17.60;1.00;;;;;;5062385;28;20482;-80
2022/04/18 12:19:12;;;;;;;4.13;2.00;;;17.70;1.00;;;;;;5065631;28;20507;-81
2022/04/18 12:21:40;;;;;;;1.30;1.20;;;17.80;1.00;;;;;;5066743;28;20988;-81
2022/04/18 12:24:10;;;;;;;1.97;1.67;;;17.90;1.00;;;;;;5062991;28;20454;-80
2022/04/18 12:26:39;;;;;;;1.90;1.70;;;18.00;1.00;;;;;;5065231;28;20493;-82
2022/04/18 12:29:09;;;;;;;2.97;1.90;;;18.00;1.00;;;;;;5067746;28;20452;-81
2022/04/18 12:31:39;;;;;;;1.83;1.63;;;18.10;1.00;;;;;;5066806;28;20524;-82
2022/04/18 12:34:07;;;;;;;2.90;1.40;;;18.10;1.00;;;;;;5069297;28;20446;-81
2022/04/18 12:36:36;;;;;;;2.30;1.50;;;17.80;1.00;;;;;;5071819;28;20484;-81
2022/04/18 12:39:05;;;;;;;2.10;1.57;;;17.80;1.00;;;;;;5070978;28;20862;-82
2022/04/18 12:41:38;;;;;;;2.40;1.30;;;17.60;1.00;;;;;;5067541;28;20459;-82
2022/04/18 12:44:11;;;;;;;1.70;1.60;;;17.60;1.00;;;;;;5068010;28;20469;-80
2022/04/18 12:46:41;;;;;;;3.67;1.47;;;17.80;1.00;;;;;;5067948;28;20472;-80
2022/04/18 12:49:11;;;;;;;1.60;1.50;;;17.90;1.00;;;;;;5067705;28;20472;-81
2022/04/18 12:51:42;;;;;;;1.40;1.30;;;18.00;1.00;;;;;;5073400;28;20474;-80
2022/04/18 12:54:19;;;;;;;1.57;1.47;;;18.10;1.00;;;;;;5065840;28;21079;-79
2022/04/18 12:56:50;;;;;;;1.53;1.43;;;18.20;1.00;;;;;;5061058;28;20493;-84
2022/04/18 12:59:24;;;;;;;2.13;1.47;;;18.40;1.00;;;;;;5066845;28;20468;-80
2022/04/18 13:01:53;;;;;;;5.90;1.63;;;18.40;1.00;;;;;;5060427;28;20451;-80
2022/04/18 13:04:23;;;;;;;1.83;1.40;;;18.30;1.00;;;;;;5064273;28;20468;-79
2022/04/18 13:07:02;;;;;;;1.60;1.50;;;18.40;1.00;;;;;;5063306;28;21052;-81
2022/04/18 13:09:31;;;;;;;2.53;2.03;;;18.50;1.00;;;;;;5066099;28;20450;-80
2022/04/18 13:12:05;;;;;;;2.50;1.93;;;18.50;1.00;;;;;;5065806;28;20489;-81
2022/04/18 13:14:37;;;;;;;3.73;1.90;;;18.50;1.00;;;;;;5064098;28;20461;-79
2022/04/18 13:17:06;;;;;;;2.10;1.30;;;18.50;1.00;;;;;;5057753;28;21854;-79
2022/04/18 13:19:36;;;;;;;2.03;1.63;;;18.60;1.00;;;;;;5060065;28;20476;-79
2022/04/18 13:22:04;;;;;;;1.93;1.70;;;18.70;1.00;;;;;;5060791;28;20452;-79
2022/04/18 13:24:33;;;;;;;1.50;1.40;;;18.70;1.00;;;;;;5057833;28;20442;-80
2022/04/18 13:27:03;;;;;;;2.77;1.80;;;18.60;1.00;;;;;;5060252;28;20518;-78
2022/04/18 13:29:32;;;;;;;1.87;1.50;;;18.60;1.00;;;;;;5063464;28;20991;-78
2022/04/18 13:32:00;;;;;;;1.50;1.40;;;18.50;1.00;;;;;;5062390;28;20491;-78
2022/04/18 13:34:28;;;;;;;2.43;1.57;;;18.60;1.00;;;;;;5060197;28;20519;-77
2022/04/18 13:36:57;;;;;;;3.27;1.73;;;18.80;1.00;;;;;;5063406;28;21295;-79